Time;durP1;ratioP1;P1;durP2;ratioP2;P2;SDS_P1;SDS_P2;PMS_P1;PMS_P2;Temp;Humidity;BMP_temperature;BMP_pressure;BME280_temperature;BME280_humidity;BME280_pressure;Samples;Min_cycle;Max_cycle;Signal;HPM_P1;HPM_P2
2023/09/03 00:02:27;;;;;;;6.00;5.50;;;19.60;99.90;;;;;;10457040;28;20206;-78
2023/09/03 00:07:29;;;;;;;5.40;5.00;;;19.60;99.90;;;;;;10451561;28;20209;-78
2023/09/03 00:12:32;;;;;;;5.50;5.10;;;19.60;99.90;;;;;;10455274;28;21080;-79
2023/09/03 00:17:34;;;;;;;6.50;5.90;;;19.60;99.90;;;;;;10463956;28;20236;-78
2023/09/03 00:22:37;;;;;;;6.10;5.50;;;19.60;99.90;;;;;;10439245;28;20251;-78
2023/09/03 00:27:41;;;;;;;6.27;5.77;;;19.50;99.90;;;;;;10451346;28;20222;-78
2023/09/03 00:32:43;;;;;;;7.40;6.40;;;19.50;99.90;;;;;;10425919;28;20690;-78
2023/09/03 00:37:45;;;;;;;6.90;6.30;;;19.50;99.90;;;;;;10437928;28;20233;-78
2023/09/03 00:42:49;;;;;;;6.40;6.00;;;19.50;99.90;;;;;;10455982;28;20649;-78
2023/09/03 00:47:53;;;;;;;6.33;5.83;;;19.50;99.90;;;;;;10440055;28;20222;-78
2023/09/03 00:52:56;;;;;;;6.80;6.30;;;19.50;99.90;;;;;;10455462;28;20197;-78
2023/09/03 00:57:59;;;;;;;6.97;6.43;;;19.50;99.90;;;;;;10437844;28;20290;-78
2023/09/03 01:03:03;;;;;;;7.23;6.67;;;19.50;99.90;;;;;;10429530;28;20709;-78
2023/09/03 01:08:06;;;;;;;6.47;6.07;;;19.40;99.90;;;;;;10457349;28;20645;-78
2023/09/03 01:13:16;;;;;;;6.70;6.20;;;19.40;99.90;;;;;;10437918;28;20198;-77
2023/09/03 01:18:22;;;;;;;5.70;5.40;;;19.40;99.90;;;;;;10438173;28;20225;-78
2023/09/03 01:23:36;;;;;;;6.87;6.37;;;19.40;99.90;;;;;;10456273;28;20228;-78
2023/09/03 01:28:40;;;;;;;6.70;6.10;;;19.40;99.90;;;;;;10423447;28;20206;-78
2023/09/03 01:33:44;;;;;;;6.67;6.20;;;19.40;99.90;;;;;;10455817;28;20189;-78
2023/09/03 01:38:47;;;;;;;6.67;5.60;;;19.30;99.90;;;;;;10452892;28;20222;-78
2023/09/03 01:43:50;;;;;;;6.10;5.70;;;19.40;99.90;;;;;;10450204;28;20203;-78
2023/09/03 01:49:05;;;;;;;6.63;6.00;;;19.30;99.90;;;;;;10437882;28;20222;-78
2023/09/03 01:54:13;;;;;;;6.77;6.27;;;19.40;99.90;;;;;;10459844;28;20659;-78
2023/09/03 01:59:20;;;;;;;6.63;6.20;;;19.30;99.90;;;;;;10460701;28;20228;-78
2023/09/03 02:04:23;;;;;;;8.10;6.57;;;19.30;99.90;;;;;;10443319;28;20198;-78
2023/09/03 02:09:25;;;;;;;6.70;6.10;;;19.30;99.90;;;;;;10444407;28;20217;-78
2023/09/03 02:14:29;;;;;;;7.27;6.67;;;19.30;99.90;;;;;;10460012;28;20201;-78
2023/09/03 02:19:31;;;;;;;6.47;6.07;;;19.20;99.90;;;;;;10441586;28;20234;-78
2023/09/03 02:24:33;;;;;;;6.43;5.83;;;19.20;99.90;;;;;;10441819;28;20209;-78
2023/09/03 02:29:37;;;;;;;6.57;6.17;;;19.20;99.90;;;;;;10444280;28;20678;-78
2023/09/03 02:34:39;;;;;;;6.33;5.83;;;19.20;99.90;;;;;;10456839;28;20198;-78
2023/09/03 02:39:42;;;;;;;6.60;6.20;;;19.20;99.90;;;;;;10438366;28;20228;-78
2023/09/03 02:44:45;;;;;;;6.13;5.60;;;19.10;99.90;;;;;;10458419;28;20221;-78
2023/09/03 02:49:47;;;;;;;6.37;5.87;;;19.10;99.90;;;;;;10442998;28;20209;-78
2023/09/03 02:54:49;;;;;;;6.70;6.30;;;19.10;99.90;;;;;;10456572;28;20666;-78
2023/09/03 02:59:53;;;;;;;6.47;5.97;;;19.00;99.90;;;;;;10457929;28;20742;-78
2023/09/03 03:04:55;;;;;;;6.73;6.17;;;19.00;99.90;;;;;;10458581;28;20228;-78
2023/09/03 03:09:57;;;;;;;7.23;6.40;;;19.00;99.90;;;;;;10417635;28;20207;-78
2023/09/03 03:15:01;;;;;;;7.10;6.50;;;19.00;99.90;;;;;;10438408;28;20279;-78
2023/09/03 03:20:04;;;;;;;6.93;6.43;;;18.90;99.90;;;;;;10439391;28;20202;-77
2023/09/03 03:25:07;;;;;;;6.30;5.80;;;18.90;99.90;;;;;;10452718;28;20325;-78
2023/09/03 03:30:11;;;;;;;7.27;6.77;;;18.90;99.90;;;;;;10441380;28;20682;-78
2023/09/03 03:35:14;;;;;;;6.57;6.07;;;18.90;99.90;;;;;;10439886;28;20256;-78
2023/09/03 03:40:16;;;;;;;6.97;6.37;;;18.90;99.90;;;;;;10438280;28;20202;-78
2023/09/03 03:45:19;;;;;;;6.77;6.23;;;18.80;99.90;;;;;;10456336;28;20240;-78
2023/09/03 03:50:22;;;;;;;7.03;6.53;;;18.80;99.90;;;;;;10438486;28;20261;-78
2023/09/03 03:55:24;;;;;;;6.37;5.97;;;18.80;99.90;;;;;;10423652;28;20214;-78
2023/09/03 04:00:28;;;;;;;6.10;5.63;;;18.80;99.90;;;;;;10439164;28;20221;-77
2023/09/03 04:05:31;;;;;;;6.83;6.23;;;18.80;99.90;;;;;;10439861;28;20206;-78
2023/09/03 04:10:33;;;;;;;7.30;6.80;;;18.80;99.90;;;;;;10438305;28;20198;-78
2023/09/03 04:15:39;;;;;;;7.17;6.67;;;18.80;99.90;;;;;;10440002;28;20711;-78
2023/09/03 04:20:41;;;;;;;6.90;6.40;;;18.80;99.90;;;;;;10438674;28;20721;-78
2023/09/03 04:25:43;;;;;;;7.00;6.37;;;18.80;99.90;;;;;;10438368;28;20206;-78
2023/09/03 04:30:54;;;;;;;7.30;6.80;;;18.80;99.90;;;;;;10436986;28;20201;-78
2023/09/03 04:35:57;;;;;;;6.83;6.40;;;18.80;99.90;;;;;;10437403;28;20241;-79
2023/09/03 04:41:04;;;;;;;7.07;6.57;;;18.70;99.90;;;;;;10451790;28;20640;-78
2023/09/03 04:46:09;;;;;;;7.07;6.37;;;18.70;99.90;;;;;;10434880;28;20230;-78
2023/09/03 04:51:12;;;;;;;6.50;6.00;;;18.70;99.90;;;;;;10452684;28;20625;-78
2023/09/03 04:56:15;;;;;;;6.13;5.73;;;18.70;99.90;;;;;;10434877;28;20593;-78
2023/09/03 05:01:21;;;;;;;6.50;6.00;;;18.70;99.90;;;;;;10436637;28;20205;-78
2023/09/03 05:06:28;;;;;;;6.33;5.87;;;18.70;99.90;;;;;;10433293;28;20789;-78
2023/09/03 05:11:33;;;;;;;6.27;5.67;;;18.80;99.90;;;;;;10435385;28;20194;-77
2023/09/03 05:16:37;;;;;;;6.20;5.80;;;18.80;99.90;;;;;;10435570;28;20276;-78
2023/09/03 05:21:39;;;;;;;5.77;5.33;;;18.80;99.90;;;;;;10437467;28;20593;-78
2023/09/03 05:26:41;;;;;;;6.83;5.50;;;18.90;99.90;;;;;;10452617;28;20209;-78
2023/09/03 05:31:44;;;;;;;5.83;5.37;;;18.90;99.90;;;;;;10453076;28;20581;-78
2023/09/03 05:36:47;;;;;;;7.07;6.37;;;19.00;99.90;;;;;;10454092;28;20228;-78
2023/09/03 05:41:49;;;;;;;6.63;5.40;;;19.00;99.90;;;;;;10450781;28;20336;-78
2023/09/03 05:46:52;;;;;;;5.47;5.10;;;19.20;99.90;;;;;;10450395;28;20218;-78
2023/09/03 05:51:54;;;;;;;6.07;5.67;;;19.30;99.90;;;;;;10450225;28;20240;-78
2023/09/03 05:56:56;;;;;;;5.63;5.13;;;19.30;99.90;;;;;;10455484;28;20236;-78
2023/09/03 06:02:00;;;;;;;6.90;5.33;;;19.40;99.90;;;;;;10458193;28;20213;-78
2023/09/03 06:07:06;;;;;;;6.47;5.87;;;19.50;99.90;;;;;;10454748;28;20558;-78
2023/09/03 06:12:08;;;;;;;6.00;5.60;;;19.60;99.90;;;;;;10463139;28;20690;-78
2023/09/03 06:17:12;;;;;;;5.63;5.13;;;19.70;99.90;;;;;;10465447;28;20229;-78
2023/09/03 06:22:14;;;;;;;5.90;5.40;;;19.80;99.90;;;;;;10452390;28;20251;-78
2023/09/03 06:27:16;;;;;;;5.53;5.07;;;19.90;99.90;;;;;;10446346;28;20217;-78
2023/09/03 06:32:20;;;;;;;5.57;5.20;;;20.00;99.90;;;;;;10461649;28;20201;-78
2023/09/03 06:37:22;;;;;;;5.30;4.80;;;20.10;99.90;;;;;;10472631;28;20222;-78
2023/09/03 06:42:26;;;;;;;6.87;5.40;;;20.20;99.90;;;;;;10442442;28;20245;-78
2023/09/03 06:47:30;;;;;;;5.17;4.83;;;20.30;99.90;;;;;;10457973;28;20224;-78
2023/09/03 06:52:32;;;;;;;5.70;5.20;;;20.40;99.90;;;;;;10457002;28;20206;-78
2023/09/03 06:57:34;;;;;;;5.10;4.70;;;20.60;99.90;;;;;;10459069;28;20257;-78
2023/09/03 07:02:38;;;;;;;5.13;4.73;;;20.70;99.90;;;;;;10459102;28;20205;-78
2023/09/03 07:07:40;;;;;;;5.97;5.47;;;20.80;99.90;;;;;;10456219;28;20225;-78
2023/09/03 07:12:42;;;;;;;6.17;5.57;;;20.90;99.90;;;;;;10458661;28;20198;-78
2023/09/03 07:17:45;;;;;;;6.33;5.73;;;21.00;99.90;;;;;;10441693;28;20620;-78
2023/09/03 07:22:47;;;;;;;5.93;5.40;;;21.10;99.90;;;;;;10438285;28;20243;-78
2023/09/03 07:27:49;;;;;;;5.87;5.33;;;21.20;99.90;;;;;;10455232;28;20232;-78
2023/09/03 07:32:52;;;;;;;5.17;4.77;;;21.20;99.90;;;;;;10456935;28;20716;-78
2023/09/03 07:37:54;;;;;;;6.33;5.73;;;21.40;99.90;;;;;;10441368;28;20279;-78
2023/09/03 07:42:57;;;;;;;6.20;5.70;;;21.40;99.90;;;;;;10451730;28;20229;-78
2023/09/03 07:48:00;;;;;;;6.00;5.40;;;21.50;99.90;;;;;;10456082;28;20264;-78
2023/09/03 07:53:03;;;;;;;5.67;5.27;;;21.60;99.90;;;;;;10454148;28;20567;-78
2023/09/03 07:58:06;;;;;;;5.40;5.00;;;21.70;99.90;;;;;;10458477;28;20222;-78
2023/09/03 08:03:09;;;;;;;5.40;5.00;;;21.80;99.90;;;;;;10457577;28;20267;-78
2023/09/03 08:08:11;;;;;;;6.83;6.17;;;21.80;99.90;;;;;;10456557;28;20564;-78
2023/09/03 08:13:13;;;;;;;6.27;5.73;;;21.90;99.90;;;;;;10453148;28;20200;-78
2023/09/03 08:18:17;;;;;;;5.93;5.40;;;22.00;99.90;;;;;;10433241;28;20217;-78
2023/09/03 08:23:19;;;;;;;5.23;4.83;;;22.10;99.90;;;;;;10453632;28;20194;-78
2023/09/03 08:28:21;;;;;;;5.83;5.23;;;22.10;99.90;;;;;;10456534;28;20272;-79
2023/09/03 08:33:25;;;;;;;5.77;5.30;;;22.20;99.90;;;;;;10437636;28;20201;-78
2023/09/03 08:38:27;;;;;;;5.13;4.70;;;22.20;99.90;;;;;;10447703;28;20237;-78
2023/09/03 08:43:30;;;;;;;5.83;5.20;;;22.10;99.90;;;;;;10442851;28;20202;-79
2023/09/03 08:48:34;;;;;;;6.23;5.63;;;22.10;99.90;;;;;;10457855;28;20209;-78
2023/09/03 08:53:39;;;;;;;5.70;5.20;;;22.20;99.90;;;;;;10455633;28;20201;-78
2023/09/03 08:58:41;;;;;;;6.00;5.40;;;22.20;99.90;;;;;;10459360;28;20232;-78
2023/09/03 09:03:46;;;;;;;5.30;4.80;;;22.30;99.90;;;;;;10435434;28;20276;-79
2023/09/03 09:08:49;;;;;;;4.90;4.53;;;22.40;99.90;;;;;;10457166;28;20264;-78
2023/09/03 09:13:57;;;;;;;4.47;4.07;;;22.60;99.90;;;;;;10454817;28;20198;-78
2023/09/03 09:19:02;;;;;;;4.63;4.23;;;22.70;99.90;;;;;;10451296;28;20813;-78
2023/09/03 09:24:05;;;;;;;4.33;4.03;;;22.80;99.90;;;;;;10444575;28;20205;-78
2023/09/03 09:29:08;;;;;;;4.60;4.30;;;22.90;99.90;;;;;;10453639;28;20214;-78
2023/09/03 09:34:12;;;;;;;4.10;3.80;;;23.00;99.90;;;;;;10456775;28;20213;-78
2023/09/03 09:39:14;;;;;;;3.87;3.67;;;23.20;99.90;;;;;;10456530;28;20229;-78
2023/09/03 09:44:18;;;;;;;4.40;4.10;;;23.40;99.90;;;;;;10434725;28;20690;-79
2023/09/03 09:49:21;;;;;;;3.63;3.33;;;23.50;99.90;;;;;;10453180;28;20313;-79
2023/09/03 09:54:24;;;;;;;4.23;3.93;;;23.70;99.90;;;;;;10436535;28;20253;-78
2023/09/03 09:59:27;;;;;;;4.10;3.70;;;23.80;99.90;;;;;;10453460;28;20601;-78
2023/09/03 10:04:31;;;;;;;3.20;2.90;;;24.10;99.90;;;;;;10452966;28;20260;-78
2023/09/03 10:09:35;;;;;;;3.00;2.80;;;24.30;99.90;;;;;;10454735;28;20225;-79
2023/09/03 10:14:37;;;;;;;5.17;4.00;;;24.40;99.90;;;;;;10462472;28;20206;-78
2023/09/03 10:19:54;;;;;;;2.90;2.70;;;24.50;99.90;;;;;;10462010;28;20229;-79
2023/09/03 10:25:01;;;;;;;3.77;3.30;;;24.50;99.90;;;;;;10459747;28;20308;-79
2023/09/03 10:30:06;;;;;;;3.10;2.90;;;24.50;99.90;;;;;;10454343;28;20575;-79
2023/09/03 10:35:11;;;;;;;3.80;3.50;;;24.40;99.90;;;;;;10446609;28;20225;-79
2023/09/03 10:40:21;;;;;;;2.60;2.50;;;24.30;99.90;;;;;;10436861;28;20218;-79
2023/09/03 10:45:23;;;;;;;2.40;2.23;;;24.20;99.90;;;;;;10459532;28;20237;-80
2023/09/03 10:50:46;;;;;;;2.57;2.47;;;24.30;99.90;;;;;;10461637;28;20229;-79
2023/09/03 10:56:06;;;;;;;1.90;1.80;;;24.30;99.90;;;;;;10445321;28;20227;-80
2023/09/03 11:01:18;;;;;;;2.13;2.03;;;24.30;99.90;;;;;;10455835;28;20229;-79
2023/09/03 11:06:23;;;;;;;2.20;2.10;;;24.40;99.90;;;;;;10461046;28;20210;-79
2023/09/03 11:11:28;;;;;;;2.20;2.10;;;24.40;99.90;;;;;;10428878;28;20261;-80
2023/09/03 11:16:31;;;;;;;1.87;1.77;;;24.40;99.90;;;;;;10457239;28;20248;-80
2023/09/03 11:21:35;;;;;;;2.07;1.97;;;24.40;99.90;;;;;;10428887;28;20248;-79
2023/09/03 11:26:38;;;;;;;2.70;2.50;;;24.50;99.90;;;;;;10444820;28;20237;-79
2023/09/03 11:31:47;;;;;;;1.70;1.60;;;24.40;99.90;;;;;;10445805;28;20206;-79
2023/09/03 11:36:56;;;;;;;2.60;2.40;;;24.50;99.90;;;;;;10470639;23;20238;-82
2023/09/03 11:42:17;;;;;;;1.87;1.77;;;24.50;99.90;;;;;;10438447;28;20276;-83
2023/09/03 11:47:24;;;;;;;2.50;2.37;;;24.50;99.90;;;;;;10426871;28;20210;-83
2023/09/03 11:52:32;;;;;;;2.10;2.00;;;24.40;99.90;;;;;;10430784;28;20289;-82
2023/09/03 11:57:37;;;;;;;1.83;1.73;;;24.40;99.90;;;;;;10416444;28;20237;-82
2023/09/03 12:02:42;;;;;;;2.10;2.00;;;24.30;99.90;;;;;;10437826;28;20490;-83
2023/09/03 12:07:46;;;;;;;2.07;1.97;;;24.30;99.90;;;;;;10420301;28;20228;-83
2023/09/03 12:12:48;;;;;;;2.00;1.90;;;24.30;99.90;;;;;;10447447;28;20209;-82
2023/09/03 12:17:51;;;;;;;1.90;1.80;;;24.30;99.90;;;;;;10435171;28;20241;-83
2023/09/03 12:22:54;;;;;;;2.90;2.63;;;24.30;99.90;;;;;;10447072;28;20201;-82
2023/09/03 12:27:56;;;;;;;2.83;2.60;;;24.40;99.90;;;;;;10423284;28;20215;-83
2023/09/03 12:32:58;;;;;;;2.30;2.20;;;24.30;99.90;;;;;;10436981;28;20205;-82
2023/09/03 12:38:02;;;;;;;2.20;2.10;;;24.30;99.90;;;;;;10419686;28;20230;-82
2023/09/03 12:43:04;;;;;;;3.67;2.07;;;24.20;99.90;;;;;;10437175;28;20271;-83
2023/09/03 12:48:06;;;;;;;2.60;2.50;;;24.20;99.90;;;;;;10425575;28;20218;-82
2023/09/03 12:53:10;;;;;;;1.87;1.77;;;24.30;99.90;;;;;;10436174;28;20194;-82
2023/09/03 12:58:12;;;;;;;2.40;2.27;;;24.20;99.90;;;;;;10405776;28;20317;-83
2023/09/03 13:03:17;;;;;;;2.70;2.50;;;24.20;99.90;;;;;;10442150;28;20214;-83
2023/09/03 13:08:22;;;;;;;2.70;2.60;;;24.20;99.90;;;;;;10427535;28;20798;-83
2023/09/03 13:13:24;;;;;;;2.57;2.43;;;24.20;99.90;;;;;;10455479;28;20206;-83
2023/09/03 13:18:28;;;;;;;2.60;2.40;;;24.20;99.90;;;;;;10422689;28;20230;-82
2023/09/03 13:23:31;;;;;;;2.40;2.30;;;24.30;99.90;;;;;;10419980;28;20819;-83
2023/09/03 13:28:34;;;;;;;2.47;2.37;;;24.30;99.90;;;;;;10429318;28;20217;-83
2023/09/03 13:33:39;;;;;;;2.30;2.20;;;24.30;99.90;;;;;;10443482;28;20279;-83
2023/09/03 13:38:42;;;;;;;2.20;2.10;;;24.30;99.90;;;;;;10433229;28;20226;-82
2023/09/03 13:43:47;;;;;;;2.07;1.97;;;24.20;99.90;;;;;;10444385;28;20203;-81
2023/09/03 13:48:49;;;;;;;2.47;2.30;;;24.30;99.90;;;;;;10448544;28;20252;-81
2023/09/03 13:53:55;;;;;;;2.37;2.27;;;24.30;99.90;;;;;;10451466;28;20194;-81
2023/09/03 13:58:57;;;;;;;2.70;2.50;;;24.30;99.90;;;;;;10452387;28;20233;-83
2023/09/03 14:03:59;;;;;;;2.90;2.70;;;24.20;99.90;;;;;;10449002;28;20203;-83
2023/09/03 14:09:04;;;;;;;3.60;2.20;;;24.20;99.90;;;;;;10416922;28;20218;-83
2023/09/03 14:14:06;;;;;;;2.60;2.40;;;24.20;99.90;;;;;;10443555;28;20293;-83
2023/09/03 14:19:09;;;;;;;2.50;2.40;;;24.30;99.90;;;;;;10436044;28;20254;-83
2023/09/03 14:24:13;;;;;;;2.47;2.23;;;24.30;99.90;;;;;;10433491;28;20226;-83
2023/09/03 14:29:16;;;;;;;2.07;1.97;;;24.30;99.90;;;;;;10445434;28;20313;-83
2023/09/03 14:34:18;;;;;;;2.67;2.00;;;24.40;99.90;;;;;;10444096;28;20273;-82
2023/09/03 14:39:21;;;;;;;2.83;1.90;;;24.40;99.90;;;;;;10432216;28;20229;-82
2023/09/03 14:44:25;;;;;;;2.27;2.17;;;24.50;99.90;;;;;;10446130;28;20195;-82
2023/09/03 14:49:38;;;;;;;2.13;2.03;;;24.50;99.90;;;;;;10459774;28;20261;-82
2023/09/03 14:54:42;;;;;;;2.23;2.13;;;24.60;99.90;;;;;;10456926;28;20204;-81
2023/09/03 14:59:44;;;;;;;2.20;2.10;;;24.60;99.90;;;;;;10434066;28;20222;-81
2023/09/03 15:04:46;;;;;;;1.97;1.87;;;24.50;99.90;;;;;;10461565;28;20293;-81
2023/09/03 15:09:53;;;;;;;2.20;2.10;;;24.50;99.90;;;;;;10463225;28;20216;-81
2023/09/03 15:14:55;;;;;;;2.30;1.80;;;24.50;99.90;;;;;;10462717;28;20206;-82
2023/09/03 15:19:57;;;;;;;2.50;2.40;;;24.50;99.90;;;;;;10462652;28;20241;-82
2023/09/03 15:25:01;;;;;;;1.90;1.80;;;24.50;99.90;;;;;;10462379;28;20209;-82
2023/09/03 15:30:03;;;;;;;2.30;2.10;;;24.40;99.90;;;;;;10445482;28;20275;-81
2023/09/03 15:35:06;;;;;;;2.40;2.20;;;24.30;99.90;;;;;;10465558;28;20587;-79
2023/09/03 15:40:11;;;;;;;2.10;2.00;;;24.20;99.90;;;;;;10462335;28;20214;-81
2023/09/03 15:45:13;;;;;;;2.20;2.10;;;24.10;99.90;;;;;;10462567;28;20197;-82
2023/09/03 15:50:15;;;;;;;2.03;1.93;;;24.00;99.90;;;;;;10459065;28;20457;-81
2023/09/03 15:55:19;;;;;;;2.10;2.00;;;23.90;99.90;;;;;;10483263;28;20312;-81
2023/09/03 16:00:21;;;;;;;2.17;2.07;;;23.90;99.90;;;;;;10462721;28;20705;-81
2023/09/03 16:05:24;;;;;;;2.20;2.00;;;23.80;99.90;;;;;;10460936;28;20260;-81
2023/09/03 16:10:28;;;;;;;2.40;2.20;;;23.80;99.90;;;;;;10460043;28;20214;-81
2023/09/03 16:15:30;;;;;;;2.10;2.00;;;23.80;99.90;;;;;;10460712;28;20221;-81
2023/09/03 16:20:32;;;;;;;2.00;1.90;;;23.80;99.90;;;;;;10458633;28;20222;-81
2023/09/03 16:25:36;;;;;;;1.70;1.60;;;23.80;99.90;;;;;;10462115;28;20305;-81
2023/09/03 16:30:38;;;;;;;1.83;1.73;;;23.70;99.90;;;;;;10442972;28;20690;-82
2023/09/03 16:35:40;;;;;;;1.80;1.70;;;23.70;99.90;;;;;;10427019;28;20252;-81
2023/09/03 16:40:43;;;;;;;2.20;2.00;;;23.70;99.90;;;;;;10461156;28;20222;-81
2023/09/03 16:45:46;;;;;;;2.20;2.10;;;23.70;99.90;;;;;;10463102;28;20221;-81
2023/09/03 16:50:48;;;;;;;2.30;2.10;;;23.70;99.90;;;;;;10484767;28;20227;-80
2023/09/03 16:55:51;;;;;;;2.30;2.20;;;23.70;99.90;;;;;;10486083;28;20214;-80
2023/09/03 17:00:53;;;;;;;2.43;2.33;;;23.60;99.90;;;;;;10478519;28;20225;-81
2023/09/03 17:05:55;;;;;;;2.30;2.20;;;23.50;99.90;;;;;;10470644;28;20225;-81
2023/09/03 17:11:02;;;;;;;2.57;2.47;;;23.30;99.90;;;;;;10440245;28;20197;-81
2023/09/03 17:16:04;;;;;;;2.40;2.30;;;23.20;99.90;;;;;;10458623;28;20217;-81
2023/09/03 17:21:06;;;;;;;2.10;2.00;;;23.10;99.90;;;;;;10466647;28;20583;-81
2023/09/03 17:26:10;;;;;;;2.47;2.37;;;23.00;99.90;;;;;;10449572;28;20210;-82
2023/09/03 17:31:12;;;;;;;2.87;2.77;;;22.90;99.90;;;;;;10467695;28;20201;-81
2023/09/03 17:36:14;;;;;;;2.30;2.17;;;22.80;99.90;;;;;;10474225;28;20233;-81
2023/09/03 17:41:18;;;;;;;2.60;2.40;;;22.80;99.90;;;;;;10456293;28;20226;-81
2023/09/03 17:46:20;;;;;;;2.57;2.37;;;22.70;99.90;;;;;;10453750;28;20237;-80
2023/09/03 17:51:22;;;;;;;2.67;2.47;;;22.60;99.90;;;;;;10458287;28;20187;-81
2023/09/03 17:56:27;;;;;;;2.57;2.37;;;22.60;99.90;;;;;;10491987;22;20234;-80
2023/09/03 18:01:29;;;;;;;3.20;3.00;;;22.40;99.90;;;;;;10462226;28;20256;-80
2023/09/03 18:06:31;;;;;;;3.10;2.90;;;22.30;99.90;;;;;;10464475;28;20268;-79
2023/09/03 18:11:37;;;;;;;5.20;3.23;;;22.20;99.90;;;;;;10447684;28;20190;-81
2023/09/03 18:16:39;;;;;;;3.10;2.90;;;22.10;99.90;;;;;;10463922;28;20222;-81
2023/09/03 18:21:41;;;;;;;3.20;2.90;;;22.00;99.90;;;;;;10448187;28;20268;-80
2023/09/03 18:26:44;;;;;;;2.53;2.43;;;21.90;99.90;;;;;;10456373;28;20210;-80
2023/09/03 18:31:46;;;;;;;2.73;2.47;;;21.80;99.90;;;;;;10459909;28;20198;-79
2023/09/03 18:36:49;;;;;;;2.50;2.40;;;21.70;99.90;;;;;;10458066;28;20229;-80
2023/09/03 18:41:52;;;;;;;3.53;2.80;;;21.60;99.90;;;;;;10461517;28;20236;-80
2023/09/03 18:46:57;;;;;;;3.23;3.00;;;21.40;99.90;;;;;;10464607;28;20225;-80
2023/09/03 18:51:59;;;;;;;2.90;2.70;;;21.30;99.90;;;;;;10464705;28;20248;-80
2023/09/03 18:57:02;;;;;;;3.10;2.90;;;21.30;99.90;;;;;;10462735;28;20230;-80
2023/09/03 19:02:04;;;;;;;3.20;2.90;;;21.20;99.90;;;;;;10464477;28;20316;-79
2023/09/03 19:07:07;;;;;;;4.33;2.80;;;21.20;99.90;;;;;;10464445;28;20222;-80
2023/09/03 19:12:11;;;;;;;2.97;2.80;;;21.10;99.90;;;;;;10463528;28;20221;-80
2023/09/03 19:17:13;;;;;;;3.33;3.13;;;21.10;99.90;;;;;;10463914;28;20220;-80
2023/09/03 19:22:15;;;;;;;3.53;3.23;;;21.00;99.90;;;;;;10463607;28;20698;-79
2023/09/03 19:27:19;;;;;;;3.43;3.13;;;20.90;99.90;;;;;;10463674;28;20229;-80
2023/09/03 19:32:21;;;;;;;3.60;3.40;;;20.90;99.90;;;;;;10452923;28;20205;-80
2023/09/03 19:37:23;;;;;;;2.87;2.73;;;20.80;99.90;;;;;;10453849;28;20218;-79
2023/09/03 19:42:27;;;;;;;4.77;2.60;;;20.70;99.90;;;;;;10468251;28;20249;-79
2023/09/03 19:47:29;;;;;;;4.10;3.00;;;20.70;99.90;;;;;;10462829;28;20224;-80
2023/09/03 19:52:31;;;;;;;3.00;2.80;;;20.60;99.90;;;;;;10451451;28;20197;-79
2023/09/03 19:57:35;;;;;;;3.53;3.13;;;20.60;99.90;;;;;;10458579;28;20237;-80
2023/09/03 20:02:37;;;;;;;2.83;2.70;;;20.60;99.90;;;;;;10462475;28;20214;-80
2023/09/03 20:07:39;;;;;;;3.57;3.30;;;20.50;99.90;;;;;;10462557;28;20228;-79
2023/09/03 20:12:42;;;;;;;2.97;2.77;;;20.50;99.90;;;;;;10452928;28;20198;-80
2023/09/03 20:17:45;;;;;;;5.00;4.60;;;20.50;99.90;;;;;;10464535;28;20229;-79
2023/09/03 20:22:47;;;;;;;4.30;3.50;;;20.50;99.90;;;;;;10444453;28;20226;-80
2023/09/03 20:27:50;;;;;;;5.10;4.57;;;20.50;99.90;;;;;;10463477;28;20225;-79
2023/09/03 20:32:52;;;;;;;3.83;3.53;;;20.50;99.90;;;;;;10457425;28;20194;-80
2023/09/03 20:37:54;;;;;;;3.20;3.00;;;20.40;99.90;;;;;;10475877;28;20221;-79
2023/09/03 20:42:58;;;;;;;3.80;3.43;;;20.40;99.90;;;;;;10457807;28;20240;-80
2023/09/03 20:48:00;;;;;;;3.50;3.30;;;20.40;99.90;;;;;;10440249;28;20214;-79
2023/09/03 20:53:02;;;;;;;3.90;3.60;;;20.30;99.90;;;;;;10445486;28;20197;-79
2023/09/03 20:58:07;;;;;;;3.70;3.50;;;20.30;99.90;;;;;;10454523;28;20229;-79
2023/09/03 21:03:09;;;;;;;5.50;3.53;;;20.30;99.90;;;;;;10459043;28;20221;-80
2023/09/03 21:08:11;;;;;;;6.83;4.13;;;20.20;99.90;;;;;;10459997;28;20221;-79
2023/09/03 21:13:14;;;;;;;3.90;3.70;;;20.20;99.90;;;;;;10462813;28;20186;-79
2023/09/03 21:18:16;;;;;;;3.43;3.20;;;20.10;99.90;;;;;;10459038;28;20229;-79
2023/09/03 21:23:19;;;;;;;5.63;3.47;;;20.10;99.90;;;;;;10460872;28;20210;-79
2023/09/03 21:28:22;;;;;;;4.17;3.67;;;20.10;99.90;;;;;;10461745;28;20242;-80
2023/09/03 21:33:25;;;;;;;3.60;3.40;;;20.00;99.90;;;;;;10461209;28;20194;-80
2023/09/03 21:38:27;;;;;;;4.40;4.00;;;19.90;99.90;;;;;;10462092;28;20304;-79
2023/09/03 21:43:30;;;;;;;4.70;3.87;;;19.90;99.90;;;;;;10461098;28;20257;-79
2023/09/03 21:48:32;;;;;;;3.60;3.40;;;19.90;99.90;;;;;;10442562;28;20570;-80
2023/09/03 21:53:35;;;;;;;4.60;4.30;;;19.90;99.90;;;;;;10459492;28;20613;-79
2023/09/03 21:58:38;;;;;;;4.17;3.83;;;19.80;99.90;;;;;;10443976;28;20287;-79
2023/09/03 22:03:43;;;;;;;4.13;3.83;;;19.80;99.90;;;;;;10460824;28;20579;-79
2023/09/03 22:08:46;;;;;;;3.17;2.97;;;19.80;99.90;;;;;;10426072;28;20778;-79
2023/09/03 22:13:49;;;;;;;4.83;4.33;;;19.70;99.90;;;;;;10466434;28;20205;-79
2023/09/03 22:18:52;;;;;;;3.83;3.53;;;19.70;99.90;;;;;;10465002;28;20279;-79
2023/09/03 22:23:54;;;;;;;5.63;3.90;;;19.60;99.90;;;;;;10464184;28;20194;-79
2023/09/03 22:28:58;;;;;;;3.87;3.67;;;19.60;99.90;;;;;;10476960;28;20243;-79
2023/09/03 22:34:00;;;;;;;4.60;4.20;;;19.60;99.90;;;;;;10483662;28;20202;-79
2023/09/03 22:39:02;;;;;;;4.80;4.40;;;19.50;99.90;;;;;;10485382;28;20589;-79
2023/09/03 22:44:06;;;;;;;4.00;3.80;;;19.50;99.90;;;;;;10466435;28;20201;-79
2023/09/03 22:49:08;;;;;;;3.70;3.50;;;19.50;99.90;;;;;;10485383;28;20227;-79
2023/09/03 22:54:10;;;;;;;4.33;3.97;;;19.40;99.90;;;;;;10483296;28;20202;-79
2023/09/03 22:59:14;;;;;;;4.80;4.40;;;19.30;99.90;;;;;;10485267;28;20234;-79
2023/09/03 23:04:16;;;;;;;4.30;4.00;;;19.30;99.90;;;;;;10485459;28;20711;-79
2023/09/03 23:09:18;;;;;;;3.80;3.60;;;19.20;99.90;;;;;;10483881;28;20213;-79
2023/09/03 23:14:21;;;;;;;4.10;3.83;;;19.20;99.90;;;;;;10483849;28;20186;-79
2023/09/03 23:19:23;;;;;;;4.37;4.07;;;19.10;99.90;;;;;;10483767;28;20729;-79
2023/09/03 23:24:25;;;;;;;3.87;3.67;;;19.10;99.90;;;;;;10460054;28;20222;-79
2023/09/03 23:29:29;;;;;;;5.20;4.70;;;19.10;99.90;;;;;;10463195;28;20218;-79
2023/09/03 23:34:32;;;;;;;4.40;4.00;;;19.10;99.90;;;;;;10463756;28;20202;-79
2023/09/03 23:39:34;;;;;;;3.70;3.50;;;19.00;99.90;;;;;;10463169;28;20231;-79
2023/09/03 23:44:37;;;;;;;4.60;4.30;;;19.00;99.90;;;;;;10462345;28;20553;-79
2023/09/03 23:49:39;;;;;;;4.53;4.20;;;18.90;99.90;;;;;;10464860;28;20623;-79
2023/09/03 23:54:41;;;;;;;3.93;3.73;;;18.90;99.90;;;;;;10462253;28;20202;-79
2023/09/03 23:59:45;;;;;;;4.20;3.90;;;18.90;99.90;;;;;;10463699;28;20221;-78
